KAVP/AVP METAR and TAF weather

Enter ICAO airport designator
Station Type Date Time Source
KAVP METAR 2019/05/26 23:54 UTC NOAA

KAVP 262354Z 21004KT 9SM BKN100 21/19 A2993 RMK AO2 SLP126 60006 T02110189 10272 20206 55001


Station Type Date Time Source
KAVP Decoded METAR 2019/05/26 23:54 UTC NOAA

WILKES-BARRE/SCRANTON INTERNATIONAL , PA, United States (KAVP) 41-20N 75-44W 291M
May 26, 2019 - 07:54 PM EDT / 2019.05.26 2354 UTC
Wind: from the SSW (210 degrees) at 5 MPH (4 KT):0
Visibility: 9 mile(s):0
Sky conditions: mostly cloudy
Temperature: 70.0 F (21.1 C)
Dew Point: 66.0 F (18.9 C)
Relative Humidity: 87%
Pressure (altimeter): 29.93 in. Hg (1013 hPa)
Pressure tendency: 0.00 inches (0.1 hPa) lower than three hours ago
ob: KAVP 262354Z 21004KT 9SM BKN100 21/19 A2993 RMK AO2 SLP126 60006 T02110189 10272 20206 55001
cycle: 0

Station Type Date Time Source
KAVP TAF 2019/05/26 18:27 UTC NOAA

TAF KAVP 261725Z 2618/2718 VRB05KT P6SM SCT060 BKN200
FM261900 28010G18KT P6SM SCT040 BKN070
TEMPO 2619/2623 4SM TSRA OVC030CB
FM270100 VRB04KT P6SM SCT060 BKN100
FM270800 00000KT P6SM SCT150 BKN250

Example: see airport list